sensor_id;sensor_type;location;lat;lon;timestamp;temperature;humidity
26641;DHT22;14269;47.358;0.724;2024-03-08T00:01:01;17.0;35.0
26641;DHT22;14269;47.358;0.724;2024-03-08T00:03:32;17.0;34.0
26641;DHT22;14269;47.358;0.724;2024-03-08T00:06:04;17.0;34.0
26641;DHT22;14269;47.358;0.724;2024-03-08T00:08:46;17.0;35.0
26641;DHT22;14269;47.358;0.724;2024-03-08T00:11:17;17.0;35.0
26641;DHT22;14269;47.358;0.724;2024-03-08T00:13:49;17.0;35.0
26641;DHT22;14269;47.358;0.724;2024-03-08T00:16:23;17.0;35.0
26641;DHT22;14269;47.358;0.724;2024-03-08T00:19:02;17.0;35.0
26641;DHT22;14269;47.358;0.724;2024-03-08T00:21:34;17.0;35.0
26641;DHT22;14269;47.358;0.724;2024-03-08T00:24:06;17.0;35.0
26641;DHT22;14269;47.358;0.724;2024-03-08T00:26:37;17.0;35.0
26641;DHT22;14269;47.358;0.724;2024-03-08T00:29:09;17.0;35.0
26641;DHT22;14269;47.358;0.724;2024-03-08T00:31:40;17.0;35.0
26641;DHT22;14269;47.358;0.724;2024-03-08T00:34:12;17.0;35.0
26641;DHT22;14269;47.358;0.724;2024-03-08T00:36:44;17.0;35.0
26641;DHT22;14269;47.358;0.724;2024-03-08T00:39:15;17.0;35.0
26641;DHT22;14269;47.358;0.724;2024-03-08T00:41:47;17.0;35.0
26641;DHT22;14269;47.358;0.724;2024-03-08T00:44:19;17.0;35.0
26641;DHT22;14269;47.358;0.724;2024-03-08T00:46:51;17.0;35.0
26641;DHT22;14269;47.358;0.724;2024-03-08T00:49:22;17.0;35.0
26641;DHT22;14269;47.358;0.724;2024-03-08T00:51:54;17.0;35.0
26641;DHT22;14269;47.358;0.724;2024-03-08T00:54:26;17.0;35.0
26641;DHT22;14269;47.358;0.724;2024-03-08T00:56:57;17.0;35.0
26641;DHT22;14269;47.358;0.724;2024-03-08T00:59:29;17.0;35.0
26641;DHT22;14269;47.358;0.724;2024-03-08T01:02:02;17.0;35.0
26641;DHT22;14269;47.358;0.724;2024-03-08T01:04:42;17.0;35.0
26641;DHT22;14269;47.358;0.724;2024-03-08T01:07:14;17.0;35.0
26641;DHT22;14269;47.358;0.724;2024-03-08T01:09:45;17.0;35.0
26641;DHT22;14269;47.358;0.724;2024-03-08T01:12:17;17.0;35.0
26641;DHT22;14269;47.358;0.724;2024-03-08T01:14:49;17.0;36.0
26641;DHT22;14269;47.358;0.724;2024-03-08T01:17:20;17.0;35.0
26641;DHT22;14269;47.358;0.724;2024-03-08T01:19:53;17.0;35.0
26641;DHT22;14269;47.358;0.724;2024-03-08T01:22:34;17.0;36.0
26641;DHT22;14269;47.358;0.724;2024-03-08T01:25:06;17.0;36.0
26641;DHT22;14269;47.358;0.724;2024-03-08T01:27:37;17.0;35.0
26641;DHT22;14269;47.358;0.724;2024-03-08T01:30:09;17.0;35.0
26641;DHT22;14269;47.358;0.724;2024-03-08T01:32:50;17.0;36.0
26641;DHT22;14269;47.358;0.724;2024-03-08T01:35:22;17.0;35.0
26641;DHT22;14269;47.358;0.724;2024-03-08T01:37:54;17.0;36.0
26641;DHT22;14269;47.358;0.724;2024-03-08T01:40:25;17.0;36.0
26641;DHT22;14269;47.358;0.724;2024-03-08T01:42:57;17.0;36.0
26641;DHT22;14269;47.358;0.724;2024-03-08T01:45:29;16.0;36.0
26641;DHT22;14269;47.358;0.724;2024-03-08T01:48:01;16.0;36.0
26641;DHT22;14269;47.358;0.724;2024-03-08T01:50:32;16.0;36.0
26641;DHT22;14269;47.358;0.724;2024-03-08T01:53:04;16.0;36.0
26641;DHT22;14269;47.358;0.724;2024-03-08T01:55:47;16.0;36.0
26641;DHT22;14269;47.358;0.724;2024-03-08T01:58:28;16.0;36.0
26641;DHT22;14269;47.358;0.724;2024-03-08T02:01:11;16.0;36.0
26641;DHT22;14269;47.358;0.724;2024-03-08T02:03:51;16.0;36.0
26641;DHT22;14269;47.358;0.724;2024-03-08T02:06:22;16.0;36.0
26641;DHT22;14269;47.358;0.724;2024-03-08T02:08:54;16.0;36.0
26641;DHT22;14269;47.358;0.724;2024-03-08T02:11:26;16.0;37.0
26641;DHT22;14269;47.358;0.724;2024-03-08T02:13:58;16.0;37.0
26641;DHT22;14269;47.358;0.724;2024-03-08T02:16:29;16.0;37.0
26641;DHT22;14269;47.358;0.724;2024-03-08T02:19:00;16.0;36.0
26641;DHT22;14269;47.358;0.724;2024-03-08T02:21:32;16.0;36.0
26641;DHT22;14269;47.358;0.724;2024-03-08T02:24:14;16.0;36.0
26641;DHT22;14269;47.358;0.724;2024-03-08T02:26:46;16.0;37.0
26641;DHT22;14269;47.358;0.724;2024-03-08T02:29:17;16.0;37.0
26641;DHT22;14269;47.358;0.724;2024-03-08T02:31:50;16.0;37.0
26641;DHT22;14269;47.358;0.724;2024-03-08T02:34:31;16.0;37.0
26641;DHT22;14269;47.358;0.724;2024-03-08T02:37:03;16.0;37.0
26641;DHT22;14269;47.358;0.724;2024-03-08T02:39:45;16.0;37.0
26641;DHT22;14269;47.358;0.724;2024-03-08T02:42:16;16.0;37.0
26641;DHT22;14269;47.358;0.724;2024-03-08T02:44:47;16.0;37.0
26641;DHT22;14269;47.358;0.724;2024-03-08T02:47:19;16.0;37.0
26641;DHT22;14269;47.358;0.724;2024-03-08T02:49:51;16.0;37.0
26641;DHT22;14269;47.358;0.724;2024-03-08T02:52:22;16.0;37.0
26641;DHT22;14269;47.358;0.724;2024-03-08T02:54:54;16.0;37.0
26641;DHT22;14269;47.358;0.724;2024-03-08T02:57:27;16.0;37.0
26641;DHT22;14269;47.358;0.724;2024-03-08T03:00:09;16.0;37.0
26641;DHT22;14269;47.358;0.724;2024-03-08T03:02:52;16.0;37.0
26641;DHT22;14269;47.358;0.724;2024-03-08T03:05:31;16.0;37.0
26641;DHT22;14269;47.358;0.724;2024-03-08T03:08:04;16.0;37.0
26641;DHT22;14269;47.358;0.724;2024-03-08T03:10:44;16.0;37.0
26641;DHT22;14269;47.358;0.724;2024-03-08T03:13:16;16.0;37.0
26641;DHT22;14269;47.358;0.724;2024-03-08T03:15:47;16.0;37.0
26641;DHT22;14269;47.358;0.724;2024-03-08T03:18:21;16.0;37.0
26641;DHT22;14269;47.358;0.724;2024-03-08T03:21:07;16.0;37.0
26641;DHT22;14269;47.358;0.724;2024-03-08T03:23:42;16.0;37.0
26641;DHT22;14269;47.358;0.724;2024-03-08T03:26:17;16.0;37.0
26641;DHT22;14269;47.358;0.724;2024-03-08T03:28:57;16.0;37.0
26641;DHT22;14269;47.358;0.724;2024-03-08T03:31:38;16.0;37.0
26641;DHT22;14269;47.358;0.724;2024-03-08T03:34:09;16.0;37.0
26641;DHT22;14269;47.358;0.724;2024-03-08T03:36:42;16.0;37.0
26641;DHT22;14269;47.358;0.724;2024-03-08T03:39:23;16.0;37.0
26641;DHT22;14269;47.358;0.724;2024-03-08T03:41:54;16.0;37.0
26641;DHT22;14269;47.358;0.724;2024-03-08T03:44:26;16.0;37.0
26641;DHT22;14269;47.358;0.724;2024-03-08T03:46:58;16.0;37.0
26641;DHT22;14269;47.358;0.724;2024-03-08T03:49:29;16.0;37.0
26641;DHT22;14269;47.358;0.724;2024-03-08T03:52:01;16.0;37.0
26641;DHT22;14269;47.358;0.724;2024-03-08T03:54:33;16.0;37.0
26641;DHT22;14269;47.358;0.724;2024-03-08T03:57:04;16.0;37.0
26641;DHT22;14269;47.358;0.724;2024-03-08T03:59:36;16.0;37.0
26641;DHT22;14269;47.358;0.724;2024-03-08T04:02:07;16.0;37.0
26641;DHT22;14269;47.358;0.724;2024-03-08T04:04:39;16.0;37.0
26641;DHT22;14269;47.358;0.724;2024-03-08T04:07:11;16.0;37.0
26641;DHT22;14269;47.358;0.724;2024-03-08T04:09:42;16.0;37.0
26641;DHT22;14269;47.358;0.724;2024-03-08T04:12:15;16.0;37.0
26641;DHT22;14269;47.358;0.724;2024-03-08T04:14:56;16.0;37.0
26641;DHT22;14269;47.358;0.724;2024-03-08T04:17:28;16.0;37.0
26641;DHT22;14269;47.358;0.724;2024-03-08T04:19:59;16.0;37.0
26641;DHT22;14269;47.358;0.724;2024-03-08T04:22:41;16.0;37.0
26641;DHT22;14269;47.358;0.724;2024-03-08T04:25:23;16.0;37.0
26641;DHT22;14269;47.358;0.724;2024-03-08T04:27:54;16.0;37.0
26641;DHT22;14269;47.358;0.724;2024-03-08T04:30:28;16.0;37.0
26641;DHT22;14269;47.358;0.724;2024-03-08T04:33:08;16.0;37.0
26641;DHT22;14269;47.358;0.724;2024-03-08T04:35:49;16.0;37.0
26641;DHT22;14269;47.358;0.724;2024-03-08T04:38:21;16.0;37.0
26641;DHT22;14269;47.358;0.724;2024-03-08T04:40:53;16.0;37.0
26641;DHT22;14269;47.358;0.724;2024-03-08T04:43:26;16.0;37.0
26641;DHT22;14269;47.358;0.724;2024-03-08T04:46:06;16.0;37.0
26641;DHT22;14269;47.358;0.724;2024-03-08T04:48:38;16.0;37.0
26641;DHT22;14269;47.358;0.724;2024-03-08T04:51:10;16.0;37.0
26641;DHT22;14269;47.358;0.724;2024-03-08T04:53:41;16.0;37.0
26641;DHT22;14269;47.358;0.724;2024-03-08T04:56:13;16.0;37.0
26641;DHT22;14269;47.358;0.724;2024-03-08T04:58:46;16.0;37.0
26641;DHT22;14269;47.358;0.724;2024-03-08T05:01:26;16.0;38.0
26641;DHT22;14269;47.358;0.724;2024-03-08T05:03:58;16.0;38.0
26641;DHT22;14269;47.358;0.724;2024-03-08T05:06:30;16.0;37.0
26641;DHT22;14269;47.358;0.724;2024-03-08T05:09:03;16.0;37.0
26641;DHT22;14269;47.358;0.724;2024-03-08T05:11:53;16.0;38.0
26641;DHT22;14269;47.358;0.724;2024-03-08T05:14:25;16.0;37.0
26641;DHT22;14269;47.358;0.724;2024-03-08T05:16:56;16.0;37.0
26641;DHT22;14269;47.358;0.724;2024-03-08T05:19:30;16.0;38.0
26641;DHT22;14269;47.358;0.724;2024-03-08T05:22:10;16.0;37.0
26641;DHT22;14269;47.358;0.724;2024-03-08T05:24:42;16.0;37.0
26641;DHT22;14269;47.358;0.724;2024-03-08T05:27:13;16.0;37.0
26641;DHT22;14269;47.358;0.724;2024-03-08T05:29:46;16.0;37.0
26641;DHT22;14269;47.358;0.724;2024-03-08T05:32:26;16.0;38.0
26641;DHT22;14269;47.358;0.724;2024-03-08T05:34:58;16.0;37.0
26641;DHT22;14269;47.358;0.724;2024-03-08T05:37:31;16.0;37.0
26641;DHT22;14269;47.358;0.724;2024-03-08T05:40:11;16.0;37.0
26641;DHT22;14269;47.358;0.724;2024-03-08T05:42:43;16.0;37.0
26641;DHT22;14269;47.358;0.724;2024-03-08T05:45:15;16.0;37.0
26641;DHT22;14269;47.358;0.724;2024-03-08T05:47:46;16.0;37.0
26641;DHT22;14269;47.358;0.724;2024-03-08T05:50:19;16.0;37.0
26641;DHT22;14269;47.358;0.724;2024-03-08T05:53:00;16.0;37.0
26641;DHT22;14269;47.358;0.724;2024-03-08T05:55:35;16.0;37.0
26641;DHT22;14269;47.358;0.724;2024-03-08T05:58:13;16.0;37.0
26641;DHT22;14269;47.358;0.724;2024-03-08T06:00:46;16.0;37.0
26641;DHT22;14269;47.358;0.724;2024-03-08T06:03:26;16.0;37.0
26641;DHT22;14269;47.358;0.724;2024-03-08T06:05:58;16.0;37.0
26641;DHT22;14269;47.358;0.724;2024-03-08T06:08:30;16.0;37.0
26641;DHT22;14269;47.358;0.724;2024-03-08T06:11:02;16.0;37.0
26641;DHT22;14269;47.358;0.724;2024-03-08T06:13:34;16.0;37.0
26641;DHT22;14269;47.358;0.724;2024-03-08T06:16:05;16.0;36.0
26641;DHT22;14269;47.358;0.724;2024-03-08T06:18:46;16.0;36.0
26641;DHT22;14269;47.358;0.724;2024-03-08T06:21:18;16.0;36.0
26641;DHT22;14269;47.358;0.724;2024-03-08T06:23:50;16.0;37.0
26641;DHT22;14269;47.358;0.724;2024-03-08T06:26:22;16.0;37.0
26641;DHT22;14269;47.358;0.724;2024-03-08T06:28:53;16.0;37.0
26641;DHT22;14269;47.358;0.724;2024-03-08T06:31:25;16.0;37.0
26641;DHT22;14269;47.358;0.724;2024-03-08T06:33:58;16.0;37.0
26641;DHT22;14269;47.358;0.724;2024-03-08T06:36:38;16.0;37.0
26641;DHT22;14269;47.358;0.724;2024-03-08T06:39:10;16.0;38.0
26641;DHT22;14269;47.358;0.724;2024-03-08T06:41:41;16.0;38.0
26641;DHT22;14269;47.358;0.724;2024-03-08T06:44:23;16.0;37.0
26641;DHT22;14269;47.358;0.724;2024-03-08T06:46:55;16.0;37.0
26641;DHT22;14269;47.358;0.724;2024-03-08T06:49:26;16.0;37.0
26641;DHT22;14269;47.358;0.724;2024-03-08T06:51:58;16.0;37.0
26641;DHT22;14269;47.358;0.724;2024-03-08T06:54:30;16.0;37.0
26641;DHT22;14269;47.358;0.724;2024-03-08T06:57:03;16.0;37.0
26641;DHT22;14269;47.358;0.724;2024-03-08T06:59:43;16.0;37.0
26641;DHT22;14269;47.358;0.724;2024-03-08T07:02:15;16.0;37.0
26641;DHT22;14269;47.358;0.724;2024-03-08T07:04:46;16.0;37.0
26641;DHT22;14269;47.358;0.724;2024-03-08T07:07:20;16.0;37.0
26641;DHT22;14269;47.358;0.724;2024-03-08T07:10:00;16.0;37.0
26641;DHT22;14269;47.358;0.724;2024-03-08T07:12:31;16.0;37.0
26641;DHT22;14269;47.358;0.724;2024-03-08T07:15:04;16.0;37.0
26641;DHT22;14269;47.358;0.724;2024-03-08T07:17:45;16.0;37.0
26641;DHT22;14269;47.358;0.724;2024-03-08T07:20:19;16.0;37.0
26641;DHT22;14269;47.358;0.724;2024-03-08T07:22:59;16.0;36.0
26641;DHT22;14269;47.358;0.724;2024-03-08T07:25:40;16.0;37.0
26641;DHT22;14269;47.358;0.724;2024-03-08T07:28:22;16.0;37.0
26641;DHT22;14269;47.358;0.724;2024-03-08T07:31:02;16.0;37.0
26641;DHT22;14269;47.358;0.724;2024-03-08T07:33:55;16.0;37.0
26641;DHT22;14269;47.358;0.724;2024-03-08T07:36:27;16.0;37.0
26641;DHT22;14269;47.358;0.724;2024-03-08T07:38:59;16.0;37.0
26641;DHT22;14269;47.358;0.724;2024-03-08T07:41:30;16.0;37.0
26641;DHT22;14269;47.358;0.724;2024-03-08T07:44:03;16.0;37.0
26641;DHT22;14269;47.358;0.724;2024-03-08T07:46:44;16.0;36.0
26641;DHT22;14269;47.358;0.724;2024-03-08T07:49:15;17.0;36.0
26641;DHT22;14269;47.358;0.724;2024-03-08T07:51:47;16.0;36.0
26641;DHT22;14269;47.358;0.724;2024-03-08T07:54:29;16.0;37.0
26641;DHT22;14269;47.358;0.724;2024-03-08T07:57:02;17.0;36.0
26641;DHT22;14269;47.358;0.724;2024-03-08T07:59:42;17.0;36.0
26641;DHT22;14269;47.358;0.724;2024-03-08T08:02:14;17.0;36.0
26641;DHT22;14269;47.358;0.724;2024-03-08T08:04:46;17.0;36.0
26641;DHT22;14269;47.358;0.724;2024-03-08T08:07:17;17.0;36.0
26641;DHT22;14269;47.358;0.724;2024-03-08T08:09:49;17.0;36.0
26641;DHT22;14269;47.358;0.724;2024-03-08T08:12:21;17.0;36.0
26641;DHT22;14269;47.358;0.724;2024-03-08T08:14:52;17.0;36.0
26641;DHT22;14269;47.358;0.724;2024-03-08T08:17:24;17.0;36.0
26641;DHT22;14269;47.358;0.724;2024-03-08T08:19:56;17.0;36.0
26641;DHT22;14269;47.358;0.724;2024-03-08T08:22:27;17.0;36.0
26641;DHT22;14269;47.358;0.724;2024-03-08T08:24:59;17.0;36.0
26641;DHT22;14269;47.358;0.724;2024-03-08T08:27:30;17.0;36.0
26641;DHT22;14269;47.358;0.724;2024-03-08T08:30:02;17.0;36.0
26641;DHT22;14269;47.358;0.724;2024-03-08T08:32:44;17.0;36.0
26641;DHT22;14269;47.358;0.724;2024-03-08T08:35:16;17.0;36.0
26641;DHT22;14269;47.358;0.724;2024-03-08T08:37:58;17.0;36.0
26641;DHT22;14269;47.358;0.724;2024-03-08T08:40:39;17.0;36.0
26641;DHT22;14269;47.358;0.724;2024-03-08T08:43:10;17.0;35.0
26641;DHT22;14269;47.358;0.724;2024-03-08T08:45:42;17.0;36.0
26641;DHT22;14269;47.358;0.724;2024-03-08T08:48:14;18.0;35.0
26641;DHT22;14269;47.358;0.724;2024-03-08T08:50:47;18.0;35.0
26641;DHT22;14269;47.358;0.724;2024-03-08T08:53:28;18.0;35.0
26641;DHT22;14269;47.358;0.724;2024-03-08T08:56:01;18.0;35.0
26641;DHT22;14269;47.358;0.724;2024-03-08T08:58:41;18.0;35.0
26641;DHT22;14269;47.358;0.724;2024-03-08T09:01:22;18.0;35.0
26641;DHT22;14269;47.358;0.724;2024-03-08T09:03:54;18.0;35.0
26641;DHT22;14269;47.358;0.724;2024-03-08T09:06:26;18.0;35.0
26641;DHT22;14269;47.358;0.724;2024-03-08T09:08:57;18.0;35.0
26641;DHT22;14269;47.358;0.724;2024-03-08T09:11:30;18.0;35.0
26641;DHT22;14269;47.358;0.724;2024-03-08T09:14:02;18.0;35.0
26641;DHT22;14269;47.358;0.724;2024-03-08T09:16:43;18.0;35.0
26641;DHT22;14269;47.358;0.724;2024-03-08T09:19:15;18.0;35.0
26641;DHT22;14269;47.358;0.724;2024-03-08T09:21:46;18.0;35.0
26641;DHT22;14269;47.358;0.724;2024-03-08T09:24:17;18.0;35.0
26641;DHT22;14269;47.358;0.724;2024-03-08T09:26:49;18.0;35.0
26641;DHT22;14269;47.358;0.724;2024-03-08T09:29:21;18.0;35.0
26641;DHT22;14269;47.358;0.724;2024-03-08T09:31:52;18.0;35.0
26641;DHT22;14269;47.358;0.724;2024-03-08T09:34:24;18.0;35.0
26641;DHT22;14269;47.358;0.724;2024-03-08T09:36:55;18.0;35.0
26641;DHT22;14269;47.358;0.724;2024-03-08T09:39:27;18.0;35.0
26641;DHT22;14269;47.358;0.724;2024-03-08T09:41:59;18.0;35.0
26641;DHT22;14269;47.358;0.724;2024-03-08T09:44:30;18.0;35.0
26641;DHT22;14269;47.358;0.724;2024-03-08T09:47:02;18.0;35.0
26641;DHT22;14269;47.358;0.724;2024-03-08T09:49:44;18.0;35.0
26641;DHT22;14269;47.358;0.724;2024-03-08T09:52:16;18.0;34.0
26641;DHT22;14269;47.358;0.724;2024-03-08T09:54:47;19.0;34.0
26641;DHT22;14269;47.358;0.724;2024-03-08T09:57:19;19.0;34.0
26641;DHT22;14269;47.358;0.724;2024-03-08T10:00:00;19.0;34.0
26641;DHT22;14269;47.358;0.724;2024-03-08T10:02:34;19.0;33.0
26641;DHT22;14269;47.358;0.724;2024-03-08T10:05:14;19.0;33.0
26641;DHT22;14269;47.358;0.724;2024-03-08T10:07:46;20.0;33.0
26641;DHT22;14269;47.358;0.724;2024-03-08T10:10:17;20.0;32.0
26641;DHT22;14269;47.358;0.724;2024-03-08T10:12:49;20.0;32.0
26641;DHT22;14269;47.358;0.724;2024-03-08T10:15:20;20.0;32.0
26641;DHT22;14269;47.358;0.724;2024-03-08T10:17:53;20.0;32.0
26641;DHT22;14269;47.358;0.724;2024-03-08T10:20:24;20.0;32.0
26641;DHT22;14269;47.358;0.724;2024-03-08T10:23:06;20.0;32.0
26641;DHT22;14269;47.358;0.724;2024-03-08T10:25:47;21.0;32.0
26641;DHT22;14269;47.358;0.724;2024-03-08T10:28:19;21.0;32.0
26641;DHT22;14269;47.358;0.724;2024-03-08T10:30:50;21.0;31.0
26641;DHT22;14269;47.358;0.724;2024-03-08T10:33:22;21.0;31.0
26641;DHT22;14269;47.358;0.724;2024-03-08T10:35:55;21.0;31.0
26641;DHT22;14269;47.358;0.724;2024-03-08T10:38:36;21.0;32.0
26641;DHT22;14269;47.358;0.724;2024-03-08T10:41:18;21.0;32.0
26641;DHT22;14269;47.358;0.724;2024-03-08T10:44:07;21.0;32.0
26641;DHT22;14269;47.358;0.724;2024-03-08T10:47:00;21.0;32.0
26641;DHT22;14269;47.358;0.724;2024-03-08T10:49:41;21.0;31.0
26641;DHT22;14269;47.358;0.724;2024-03-08T10:52:25;22.0;31.0
26641;DHT22;14269;47.358;0.724;2024-03-08T10:54:57;22.0;31.0
26641;DHT22;14269;47.358;0.724;2024-03-08T10:57:39;22.0;31.0
26641;DHT22;14269;47.358;0.724;2024-03-08T11:00:26;22.0;31.0
26641;DHT22;14269;47.358;0.724;2024-03-08T11:03:03;22.0;30.0
26641;DHT22;14269;47.358;0.724;2024-03-08T11:05:43;23.0;30.0
26641;DHT22;14269;47.358;0.724;2024-03-08T11:08:19;23.0;29.0
26641;DHT22;14269;47.358;0.724;2024-03-08T11:10:57;23.0;29.0
26641;DHT22;14269;47.358;0.724;2024-03-08T11:13:38;23.0;28.0
26641;DHT22;14269;47.358;0.724;2024-03-08T11:16:37;23.0;30.0
26641;DHT22;14269;47.358;0.724;2024-03-08T11:19:31;24.0;29.0
26641;DHT22;14269;47.358;0.724;2024-03-08T11:22:04;24.0;29.0
26641;DHT22;14269;47.358;0.724;2024-03-08T11:24:40;24.0;28.0
26641;DHT22;14269;47.358;0.724;2024-03-08T11:27:17;25.0;28.0
26641;DHT22;14269;47.358;0.724;2024-03-08T11:30:10;25.0;27.0
26641;DHT22;14269;47.358;0.724;2024-03-08T11:32:52;25.0;27.0
26641;DHT22;14269;47.358;0.724;2024-03-08T11:35:33;25.0;27.0
26641;DHT22;14269;47.358;0.724;2024-03-08T11:38:04;26.0;26.0
26641;DHT22;14269;47.358;0.724;2024-03-08T11:40:36;26.0;26.0
26641;DHT22;14269;47.358;0.724;2024-03-08T11:43:18;25.0;27.0
26641;DHT22;14269;47.358;0.724;2024-03-08T11:45:49;25.0;26.0
26641;DHT22;14269;47.358;0.724;2024-03-08T11:48:21;26.0;26.0
26641;DHT22;14269;47.358;0.724;2024-03-08T11:51:00;25.0;26.0
26641;DHT22;14269;47.358;0.724;2024-03-08T11:53:36;25.0;27.0
26641;DHT22;14269;47.358;0.724;2024-03-08T11:56:16;25.0;26.0
26641;DHT22;14269;47.358;0.724;2024-03-08T11:58:53;25.0;27.0
26641;DHT22;14269;47.358;0.724;2024-03-08T12:01:31;26.0;26.0
26641;DHT22;14269;47.358;0.724;2024-03-08T12:04:12;26.0;26.0
26641;DHT22;14269;47.358;0.724;2024-03-08T12:06:45;26.0;26.0
26641;DHT22;14269;47.358;0.724;2024-03-08T12:09:25;25.0;26.0
26641;DHT22;14269;47.358;0.724;2024-03-08T12:11:59;26.0;26.0
26641;DHT22;14269;47.358;0.724;2024-03-08T12:14:39;25.0;26.0
26641;DHT22;14269;47.358;0.724;2024-03-08T12:17:20;26.0;26.0
26641;DHT22;14269;47.358;0.724;2024-03-08T12:19:54;26.0;26.0
26641;DHT22;14269;47.358;0.724;2024-03-08T12:22:33;26.0;26.0
26641;DHT22;14269;47.358;0.724;2024-03-08T12:25:06;25.0;26.0
26641;DHT22;14269;47.358;0.724;2024-03-08T12:27:47;25.0;26.0
26641;DHT22;14269;47.358;0.724;2024-03-08T12:30:22;25.0;27.0
26641;DHT22;14269;47.358;0.724;2024-03-08T12:33:00;24.0;27.0
26641;DHT22;14269;47.358;0.724;2024-03-08T12:35:33;25.0;26.0
26641;DHT22;14269;47.358;0.724;2024-03-08T12:38:13;25.0;26.0
26641;DHT22;14269;47.358;0.724;2024-03-08T12:40:45;25.0;26.0
26641;DHT22;14269;47.358;0.724;2024-03-08T12:43:18;25.0;26.0
26641;DHT22;14269;47.358;0.724;2024-03-08T12:45:59;25.0;26.0
26641;DHT22;14269;47.358;0.724;2024-03-08T12:48:34;26.0;24.0
26641;DHT22;14269;47.358;0.724;2024-03-08T12:51:12;26.0;24.0
26641;DHT22;14269;47.358;0.724;2024-03-08T12:53:44;26.0;25.0
26641;DHT22;14269;47.358;0.724;2024-03-08T12:56:30;25.0;25.0
26641;DHT22;14269;47.358;0.724;2024-03-08T12:59:08;25.0;26.0
26641;DHT22;14269;47.358;0.724;2024-03-08T13:01:39;25.0;26.0
26641;DHT22;14269;47.358;0.724;2024-03-08T13:04:11;25.0;26.0
26641;DHT22;14269;47.358;0.724;2024-03-08T13:06:42;24.0;27.0
26641;DHT22;14269;47.358;0.724;2024-03-08T13:09:14;24.0;27.0
26641;DHT22;14269;47.358;0.724;2024-03-08T13:11:46;22.0;29.0
26641;DHT22;14269;47.358;0.724;2024-03-08T13:14:17;22.0;30.0
26641;DHT22;14269;47.358;0.724;2024-03-08T13:16:49;23.0;29.0
26641;DHT22;14269;47.358;0.724;2024-03-08T13:19:22;22.0;30.0
26641;DHT22;14269;47.358;0.724;2024-03-08T13:22:04;23.0;29.0
26641;DHT22;14269;47.358;0.724;2024-03-08T13:24:45;23.0;28.0
26641;DHT22;14269;47.358;0.724;2024-03-08T13:27:25;23.0;28.0
26641;DHT22;14269;47.358;0.724;2024-03-08T13:29:57;23.0;28.0
26641;DHT22;14269;47.358;0.724;2024-03-08T13:32:31;23.0;28.0
26641;DHT22;14269;47.358;0.724;2024-03-08T13:35:12;23.0;28.0
26641;DHT22;14269;47.358;0.724;2024-03-08T13:37:52;24.0;27.0
26641;DHT22;14269;47.358;0.724;2024-03-08T13:40:24;24.0;27.0
26641;DHT22;14269;47.358;0.724;2024-03-08T13:42:56;24.0;27.0
26641;DHT22;14269;47.358;0.724;2024-03-08T13:45:27;24.0;28.0
26641;DHT22;14269;47.358;0.724;2024-03-08T13:47:59;23.0;28.0
26641;DHT22;14269;47.358;0.724;2024-03-08T13:50:30;24.0;28.0
26641;DHT22;14269;47.358;0.724;2024-03-08T13:53:03;24.0;27.0
26641;DHT22;14269;47.358;0.724;2024-03-08T13:55:44;23.0;29.0
26641;DHT22;14269;47.358;0.724;2024-03-08T13:58:16;24.0;28.0
26641;DHT22;14269;47.358;0.724;2024-03-08T14:00:48;24.0;28.0
26641;DHT22;14269;47.358;0.724;2024-03-08T14:03:19;24.0;28.0
26641;DHT22;14269;47.358;0.724;2024-03-08T14:06:01;24.0;28.0
26641;DHT22;14269;47.358;0.724;2024-03-08T14:08:42;24.0;28.0
26641;DHT22;14269;47.358;0.724;2024-03-08T14:11:14;24.0;28.0
26641;DHT22;14269;47.358;0.724;2024-03-08T14:13:46;24.0;28.0
26641;DHT22;14269;47.358;0.724;2024-03-08T14:16:17;23.0;28.0
26641;DHT22;14269;47.358;0.724;2024-03-08T14:18:49;23.0;28.0
26641;DHT22;14269;47.358;0.724;2024-03-08T14:21:22;23.0;28.0
26641;DHT22;14269;47.358;0.724;2024-03-08T14:24:05;23.0;28.0
26641;DHT22;14269;47.358;0.724;2024-03-08T14:26:44;23.0;28.0
26641;DHT22;14269;47.358;0.724;2024-03-08T14:29:18;23.0;28.0
26641;DHT22;14269;47.358;0.724;2024-03-08T14:31:58;23.0;28.0
26641;DHT22;14269;47.358;0.724;2024-03-08T14:34:39;23.0;29.0
26641;DHT22;14269;47.358;0.724;2024-03-08T14:37:11;23.0;29.0
26641;DHT22;14269;47.358;0.724;2024-03-08T14:39:54;23.0;30.0
26641;DHT22;14269;47.358;0.724;2024-03-08T14:42:34;23.0;30.0
26641;DHT22;14269;47.358;0.724;2024-03-08T14:45:07;23.0;31.0
26641;DHT22;14269;47.358;0.724;2024-03-08T14:47:50;22.0;31.0
26641;DHT22;14269;47.358;0.724;2024-03-08T14:50:31;23.0;31.0
26641;DHT22;14269;47.358;0.724;2024-03-08T14:53:15;23.0;32.0
26641;DHT22;14269;47.358;0.724;2024-03-08T14:55:53;22.0;33.0
26641;DHT22;14269;47.358;0.724;2024-03-08T14:58:35;22.0;34.0
26641;DHT22;14269;47.358;0.724;2024-03-08T15:01:07;22.0;35.0
26641;DHT22;14269;47.358;0.724;2024-03-08T15:03:38;22.0;36.0
26641;DHT22;14269;47.358;0.724;2024-03-08T15:06:10;22.0;37.0
26641;DHT22;14269;47.358;0.724;2024-03-08T15:08:42;21.0;38.0
26641;DHT22;14269;47.358;0.724;2024-03-08T15:11:21;21.0;41.0
26641;DHT22;14269;47.358;0.724;2024-03-08T15:14:10;20.0;42.0
26641;DHT22;14269;47.358;0.724;2024-03-08T15:16:49;20.0;44.0
26641;DHT22;14269;47.358;0.724;2024-03-08T15:19:28;20.0;45.0
26641;DHT22;14269;47.358;0.724;2024-03-08T15:22:01;20.0;45.0
26641;DHT22;14269;47.358;0.724;2024-03-08T15:24:43;20.0;45.0
26641;DHT22;14269;47.358;0.724;2024-03-08T15:27:24;20.0;45.0
26641;DHT22;14269;47.358;0.724;2024-03-08T15:29:55;20.0;46.0
26641;DHT22;14269;47.358;0.724;2024-03-08T15:32:29;20.0;45.0
26641;DHT22;14269;47.358;0.724;2024-03-08T15:35:13;20.0;46.0
26641;DHT22;14269;47.358;0.724;2024-03-08T15:37:52;20.0;46.0
26641;DHT22;14269;47.358;0.724;2024-03-08T15:40:35;19.0;47.0
26641;DHT22;14269;47.358;0.724;2024-03-08T15:43:16;20.0;47.0
26641;DHT22;14269;47.358;0.724;2024-03-08T15:45:58;20.0;46.0
26641;DHT22;14269;47.358;0.724;2024-03-08T15:48:38;20.0;46.0
26641;DHT22;14269;47.358;0.724;2024-03-08T15:51:19;20.0;46.0
26641;DHT22;14269;47.358;0.724;2024-03-08T15:53:53;20.0;47.0
26641;DHT22;14269;47.358;0.724;2024-03-08T15:56:34;20.0;47.0
26641;DHT22;14269;47.358;0.724;2024-03-08T15:59:14;19.0;48.0
26641;DHT22;14269;47.358;0.724;2024-03-08T16:01:51;20.0;47.0
26641;DHT22;14269;47.358;0.724;2024-03-08T16:04:29;20.0;47.0
26641;DHT22;14269;47.358;0.724;2024-03-08T16:07:10;20.0;46.0
26641;DHT22;14269;47.358;0.724;2024-03-08T16:09:42;20.0;46.0
26641;DHT22;14269;47.358;0.724;2024-03-08T16:12:13;20.0;46.0
26641;DHT22;14269;47.358;0.724;2024-03-08T16:14:54;20.0;46.0
26641;DHT22;14269;47.358;0.724;2024-03-08T16:17:27;21.0;46.0
26641;DHT22;14269;47.358;0.724;2024-03-08T16:19:59;21.0;45.0
26641;DHT22;14269;47.358;0.724;2024-03-08T16:22:42;21.0;45.0
26641;DHT22;14269;47.358;0.724;2024-03-08T16:25:22;21.0;45.0
26641;DHT22;14269;47.358;0.724;2024-03-08T16:28:03;21.0;45.0
26641;DHT22;14269;47.358;0.724;2024-03-08T16:30:48;21.0;45.0
26641;DHT22;14269;47.358;0.724;2024-03-08T16:33:26;21.0;45.0
26641;DHT22;14269;47.358;0.724;2024-03-08T16:35:59;21.0;45.0
26641;DHT22;14269;47.358;0.724;2024-03-08T16:38:43;21.0;45.0
26641;DHT22;14269;47.358;0.724;2024-03-08T16:41:22;21.0;45.0
26641;DHT22;14269;47.358;0.724;2024-03-08T16:43:53;21.0;44.0
26641;DHT22;14269;47.358;0.724;2024-03-08T16:46:25;21.0;44.0
26641;DHT22;14269;47.358;0.724;2024-03-08T16:48:57;21.0;45.0
26641;DHT22;14269;47.358;0.724;2024-03-08T16:51:28;21.0;44.0
26641;DHT22;14269;47.358;0.724;2024-03-08T16:54:02;20.0;44.0